createdAt,value
2023-05-06T00:02:09.089Z,59.29
2023-05-06T00:04:36.244Z,59.21
2023-05-06T00:07:03.099Z,59.08
2023-05-06T00:09:29.872Z,59.35
2023-05-06T00:11:57.166Z,59.14
2023-05-06T00:14:24.004Z,59.08
2023-05-06T00:16:51.134Z,59.41
2023-05-06T00:19:17.902Z,59.08
2023-05-06T00:21:44.808Z,58.95
2023-05-06T00:24:12.287Z,59.13
2023-05-06T00:26:39.209Z,58.56
2023-05-06T00:29:06.132Z,59.09
2023-05-06T00:31:36.393Z,58.85
2023-05-06T00:34:04.063Z,58.37
2023-05-06T00:36:31.645Z,58.28
2023-05-06T00:38:58.721Z,58.33
2023-05-06T00:41:26.300Z,58.47
2023-05-06T00:43:52.968Z,58.40
2023-05-06T00:46:19.808Z,58.37
2023-05-06T00:48:46.962Z,58.60
2023-05-06T00:51:14.028Z,57.73
2023-05-06T00:53:41.610Z,58.16
2023-05-06T00:56:08.960Z,58.37
2023-05-06T00:58:37.013Z,58.25
2023-05-06T01:01:03.757Z,57.81
2023-05-06T01:03:31.430Z,58.60
2023-05-06T01:06:24.698Z,58.67
2023-05-06T01:09:30.652Z,59.03
2023-05-06T01:12:17.151Z,58.78
2023-05-06T01:14:59.980Z,58.85
2023-05-06T01:17:33.505Z,58.73
2023-05-06T01:20:01.920Z,58.95
2023-05-06T01:22:30.535Z,59.49
2023-05-06T01:24:57.310Z,58.97
2023-05-06T01:27:24.711Z,59.21
2023-05-06T01:29:53.620Z,59.31
2023-05-06T01:32:54.827Z,59.58
2023-05-06T01:36:03.457Z,59.68
2023-05-06T01:38:36.299Z,59.47
2023-05-06T01:41:04.048Z,59.66
2023-05-06T01:43:38.147Z,60.13
2023-05-06T01:46:06.762Z,59.98
2023-05-06T01:48:37.107Z,60.13
2023-05-06T01:51:04.516Z,60.69
2023-05-06T01:53:33.146Z,60.68
2023-05-06T01:56:00.897Z,60.58
2023-05-06T01:58:27.762Z,61.34
2023-05-06T02:00:54.412Z,61.93
2023-05-06T02:03:21.354Z,61.63
2023-05-06T02:05:48.650Z,61.84
2023-05-06T02:08:15.623Z,61.88
2023-05-06T02:10:44.298Z,61.94
2023-05-06T02:13:11.941Z,61.67
2023-05-06T02:15:38.983Z,62.25
2023-05-06T02:18:08.363Z,62.16
2023-05-06T02:20:35.059Z,62.31
2023-05-06T02:23:01.652Z,62.32
2023-05-06T02:25:29.340Z,62.22
2023-05-06T02:27:56.016Z,62.38
2023-05-06T02:30:22.659Z,62.30
2023-05-06T02:32:49.430Z,62.27
2023-05-06T02:35:16.098Z,62.53
2023-05-06T02:37:43.037Z,62.37
2023-05-06T02:40:10.062Z,62.54
2023-05-06T02:42:36.904Z,62.51
2023-05-06T02:45:04.143Z,62.82
2023-05-06T02:47:32.387Z,62.85
2023-05-06T02:49:59.134Z,63.40
2023-05-06T02:52:25.859Z,63.52
2023-05-06T02:54:52.679Z,63.35
2023-05-06T02:57:19.508Z,63.49
2023-05-06T02:59:46.160Z,63.58
2023-05-06T03:02:12.735Z,63.59
2023-05-06T03:04:39.454Z,63.73
2023-05-06T03:07:06.382Z,63.95
2023-05-06T03:09:33.820Z,63.59
2023-05-06T03:12:00.653Z,63.78
2023-05-06T03:14:27.368Z,64.32
2023-05-06T03:16:54.116Z,64.13
2023-05-06T03:19:21.874Z,64.68
2023-05-06T03:21:49.246Z,64.24
2023-05-06T03:24:18.490Z,64.82
2023-05-06T03:26:45.375Z,64.39
2023-05-06T03:29:13.148Z,64.40
2023-05-06T03:31:42.017Z,64.63
2023-05-06T03:34:09.660Z,64.00
2023-05-06T03:36:36.429Z,64.06
2023-05-06T03:39:03.287Z,64.44
2023-05-06T03:41:32.460Z,64.75
2023-05-06T03:43:59.692Z,65.01
2023-05-06T03:46:27.615Z,64.89
2023-05-06T03:48:54.489Z,65.32
2023-05-06T03:51:21.231Z,65.34
2023-05-06T03:53:48.278Z,65.31
2023-05-06T03:56:18.081Z,65.70
2023-05-06T03:58:46.870Z,65.37
2023-05-06T04:01:14.361Z,65.51
2023-05-06T04:03:41.151Z,65.55
2023-05-06T04:06:08.254Z,65.67
2023-05-06T04:08:34.953Z,65.74
2023-05-06T04:11:10.280Z,65.98
2023-05-06T04:13:37.679Z,66.10
2023-05-06T04:16:10.770Z,65.43
2023-05-06T04:18:41.073Z,65.55
2023-05-06T04:21:13.595Z,65.81
2023-05-06T04:23:42.747Z,65.85
2023-05-06T04:26:13.839Z,65.86
2023-05-06T04:28:42.215Z,66.05
2023-05-06T04:31:10.778Z,66.20
2023-05-06T04:33:44.926Z,66.15
2023-05-06T04:36:15.782Z,66.38
2023-05-06T04:38:53.255Z,66.48
2023-05-06T04:41:20.603Z,66.69
2023-05-06T04:43:47.462Z,66.62
2023-05-06T04:46:19.603Z,66.73
2023-05-06T04:48:47.229Z,66.30
2023-05-06T04:51:15.271Z,67.02
2023-05-06T04:53:41.988Z,67.36
2023-05-06T04:56:09.257Z,67.29
2023-05-06T04:58:39.962Z,66.95
2023-05-06T05:01:08.989Z,67.24
2023-05-06T05:03:35.895Z,66.96
2023-05-06T05:06:04.194Z,67.22
2023-05-06T05:08:31.361Z,66.98
2023-05-06T05:10:58.092Z,67.48
2023-05-06T05:13:27.282Z,66.94
2023-05-06T05:15:55.828Z,66.88
2023-05-06T05:18:25.162Z,66.43
2023-05-06T05:20:55.584Z,66.54
2023-05-06T05:23:22.680Z,66.10
2023-05-06T05:25:49.508Z,66.27
2023-05-06T05:28:16.667Z,66.59
2023-05-06T05:30:43.743Z,66.38
2023-05-06T05:33:10.743Z,66.09
2023-05-06T05:35:38.329Z,65.38
2023-05-06T05:38:05.586Z,65.09
2023-05-06T05:40:32.356Z,65.03
2023-05-06T05:42:59.283Z,64.55
2023-05-06T05:45:34.663Z,63.88
2023-05-06T05:48:01.412Z,63.61
2023-05-06T05:50:28.173Z,63.34
2023-05-06T05:52:56.872Z,63.12
2023-05-06T05:55:24.475Z,62.91
2023-05-06T05:57:51.927Z,62.91
2023-05-06T06:00:21.193Z,62.61
2023-05-06T06:02:51.021Z,62.48
2023-05-06T06:05:20.430Z,61.78
2023-05-06T06:07:47.380Z,61.53
2023-05-06T06:10:15.371Z,60.48
2023-05-06T06:12:44.695Z,59.56
2023-05-06T06:15:14.625Z,58.79
2023-05-06T06:17:43.159Z,57.77
2023-05-06T06:20:12.129Z,56.92
2023-05-06T06:22:39.274Z,55.95
2023-05-06T06:25:06.482Z,54.96
2023-05-06T06:27:39.082Z,54.96
2023-05-06T06:30:07.787Z,55.06
2023-05-06T06:32:34.527Z,55.12
2023-05-06T06:35:01.928Z,54.88
2023-05-06T06:37:28.739Z,54.37
2023-05-06T06:39:55.503Z,52.65
2023-05-06T06:42:22.209Z,50.40
2023-05-06T06:44:59.275Z,49.28
2023-05-06T06:47:26.068Z,49.73
2023-05-06T06:49:52.738Z,49.84
2023-05-06T06:52:19.350Z,50.66
2023-05-06T06:54:46.065Z,50.71
2023-05-06T06:57:12.811Z,51.13
2023-05-06T06:59:39.568Z,51.05
2023-05-06T07:02:06.780Z,50.45
2023-05-06T07:04:33.533Z,50.72
2023-05-06T07:07:00.529Z,50.60
2023-05-06T07:09:30.478Z,50.83
2023-05-06T07:11:58.645Z,51.07
2023-05-06T07:14:25.937Z,51.08
2023-05-06T07:16:52.844Z,51.15
2023-05-06T07:19:19.637Z,51.13
2023-05-06T07:21:46.501Z,50.43
2023-05-06T07:24:13.222Z,49.78
2023-05-06T07:26:41.263Z,49.13
2023-05-06T07:29:07.905Z,47.84
2023-05-06T07:31:34.901Z,46.71
2023-05-06T07:34:01.828Z,47.46
2023-05-06T07:36:29.172Z,47.94
2023-05-06T07:38:56.943Z,49.28
2023-05-06T07:41:24.324Z,49.30
2023-05-06T07:43:51.013Z,49.06
2023-05-06T07:46:18.055Z,49.09
2023-05-06T07:48:44.781Z,48.87
2023-05-06T07:51:11.469Z,49.28
2023-05-06T07:53:40.581Z,48.34
2023-05-06T07:56:09.373Z,47.69
2023-05-06T07:58:39.268Z,46.93
2023-05-06T08:01:09.873Z,46.31
2023-05-06T08:03:36.916Z,45.83
2023-05-06T08:06:04.498Z,42.73
2023-05-06T08:08:31.319Z,39.71
2023-05-06T08:10:58.828Z,35.47
2023-05-06T08:13:26.122Z,32.76
2023-05-06T08:15:53.222Z,30.09
2023-05-06T08:18:22.760Z,27.89
2023-05-06T08:21:11.155Z,25.90
2023-05-06T08:23:40.854Z,26.37
2023-05-06T08:26:08.817Z,26.93
2023-05-06T08:28:38.731Z,25.67
2023-05-06T08:31:05.668Z,23.18
2023-05-06T08:33:38.294Z,20.07
2023-05-06T08:36:05.301Z,19.31
2023-05-06T08:38:32.040Z,19.03
2023-05-06T08:41:04.549Z,18.08
2023-05-06T08:43:33.692Z,17.06
2023-05-06T08:46:20.944Z,15.85
2023-05-06T08:49:10.006Z,15.56
2023-05-06T08:51:43.465Z,15.43
2023-05-06T08:54:12.742Z,15.15
2023-05-06T08:57:07.175Z,15.22
2023-05-06T08:59:36.977Z,14.69
2023-05-06T09:02:14.083Z,14.78
2023-05-06T09:04:41.660Z,14.04
2023-05-06T09:07:08.448Z,14.10
2023-05-06T09:09:35.966Z,14.01
2023-05-06T09:12:02.914Z,13.78
2023-05-06T09:14:29.903Z,13.55
2023-05-06T09:16:56.519Z,14.61
2023-05-06T09:19:24.084Z,14.76
2023-05-06T09:21:51.699Z,14.19
2023-05-06T09:24:18.884Z,13.70
2023-05-06T09:26:46.737Z,12.86
2023-05-06T09:29:32.337Z,11.81
2023-05-06T09:32:05.994Z,11.07
2023-05-06T09:34:33.542Z,11.06
2023-05-06T09:37:01.203Z,10.21
2023-05-06T09:39:28.034Z,10.11
2023-05-06T09:41:55.141Z,10.62
2023-05-06T09:44:24.046Z,10.76
2023-05-06T09:46:50.965Z,12.29
2023-05-06T09:49:17.842Z,11.35
2023-05-06T09:51:47.843Z,11.77
2023-05-06T09:54:17.339Z,11.38
2023-05-06T09:56:44.437Z,10.79
2023-05-06T09:59:12.294Z,10.68
2023-05-06T10:01:39.899Z,10.83
2023-05-06T10:04:10.010Z,9.88
2023-05-06T10:06:40.148Z,9.70
2023-05-06T10:09:10.938Z,10.35
2023-05-06T10:11:38.825Z,10.34
2023-05-06T10:14:06.855Z,9.56
2023-05-06T10:16:36.074Z,8.31
2023-05-06T10:19:04.697Z,8.60
2023-05-06T10:21:34.325Z,8.02
2023-05-06T10:24:07.351Z,8.92
2023-05-06T10:26:36.890Z,8.19
2023-05-06T10:29:09.314Z,7.39
2023-05-06T10:31:39.177Z,6.96
2023-05-06T10:37:11.771Z,6.46
2023-05-06T10:39:42.200Z,6.85
2023-05-06T10:42:11.260Z,6.61
2023-05-06T10:45:02.393Z,6.44
2023-05-06T10:47:57.360Z,5.89
2023-05-06T10:50:25.850Z,4.99
2023-05-06T10:52:57.135Z,5.56
2023-05-06T10:55:27.547Z,4.52
2023-05-06T10:58:02.329Z,5.04
2023-05-06T11:00:33.915Z,5.23
2023-05-06T11:03:23.649Z,5.67
2023-05-06T11:05:52.400Z,5.05
2023-05-06T11:08:24.347Z,4.69
2023-05-06T11:10:51.902Z,5.31
2023-05-06T11:13:37.270Z,5.11
2023-05-06T11:16:04.333Z,5.24
2023-05-06T11:18:32.334Z,5.19
2023-05-06T11:21:08.365Z,4.82
2023-05-06T11:23:49.496Z,5.60
2023-05-06T11:26:19.775Z,5.93
2023-05-06T11:28:53.188Z,6.19
2023-05-06T11:31:22.182Z,6.38
2023-05-06T11:34:15.775Z,6.38
2023-05-06T11:40:18.120Z,6.94
2023-05-06T11:43:12.609Z,6.78
2023-05-06T11:45:49.415Z,7.68
2023-05-06T11:48:28.770Z,6.73
2023-05-06T11:50:58.502Z,7.19
2023-05-06T11:53:25.394Z,8.68
2023-05-06T11:55:54.881Z,9.82
2023-05-06T11:58:31.841Z,11.60
2023-05-06T12:01:07.748Z,11.75
2023-05-06T12:04:01.116Z,11.56
2023-05-06T12:06:35.097Z,11.39
2023-05-06T12:11:57.614Z,12.34
2023-05-06T12:14:27.836Z,13.11
2023-05-06T12:16:56.145Z,13.77
2023-05-06T12:19:24.550Z,14.69
2023-05-06T12:21:54.770Z,15.42
2023-05-06T12:24:30.062Z,15.85
2023-05-06T12:26:56.828Z,16.29
2023-05-06T12:29:23.541Z,16.79
2023-05-06T12:32:08.144Z,17.10
2023-05-06T12:34:42.098Z,17.76
2023-05-06T12:37:15.189Z,18.21
2023-05-06T12:39:41.803Z,18.47
2023-05-06T12:42:19.771Z,18.43
2023-05-06T12:44:47.034Z,18.18
2023-05-06T12:47:22.157Z,18.40
2023-05-06T12:49:59.456Z,18.47
2023-05-06T12:52:28.687Z,18.88
2023-05-06T12:54:57.712Z,19.03
2023-05-06T12:57:24.348Z,19.06
2023-05-06T12:59:51.057Z,19.67
2023-05-06T13:02:18.479Z,19.71
2023-05-06T13:04:49.214Z,19.72
2023-05-06T13:07:16.035Z,20.09
2023-05-06T13:09:43.491Z,19.39
2023-05-06T13:12:10.405Z,20.50
2023-05-06T13:14:40.554Z,20.76
2023-05-06T13:17:07.899Z,20.37
2023-05-06T13:19:35.126Z,20.55
2023-05-06T13:22:05.189Z,20.98
2023-05-06T13:24:32.338Z,20.68
2023-05-06T13:27:04.372Z,21.34
2023-05-06T13:29:33.036Z,20.91
2023-05-06T13:32:00.808Z,21.40
2023-05-06T13:34:30.059Z,21.53
2023-05-06T13:36:56.776Z,21.17
2023-05-06T13:39:23.654Z,22.23
2023-05-06T13:41:52.289Z,22.41
2023-05-06T13:44:20.763Z,22.37
2023-05-06T13:46:48.312Z,22.14
2023-05-06T13:49:15.270Z,22.94
2023-05-06T13:51:41.939Z,23.14
2023-05-06T13:54:08.639Z,23.36
2023-05-06T13:56:35.376Z,23.00
2023-05-06T13:59:02.155Z,22.80
2023-05-06T14:01:28.939Z,23.11
2023-05-06T14:03:55.668Z,23.09
2023-05-06T14:06:22.368Z,23.95
2023-05-06T14:08:49.084Z,23.59
2023-05-06T14:11:15.789Z,23.56
2023-05-06T14:13:42.460Z,23.53
2023-05-06T14:16:09.210Z,24.13
2023-05-06T14:18:36.009Z,23.55
2023-05-06T14:21:03.569Z,23.39
2023-05-06T14:23:30.406Z,23.13
2023-05-06T14:25:57.327Z,23.45
2023-05-06T14:28:24.149Z,22.79
2023-05-06T14:30:51.471Z,23.63
2023-05-06T14:33:18.341Z,23.40
2023-05-06T14:35:46.174Z,23.35
2023-05-06T14:38:12.915Z,23.10
2023-05-06T14:40:43.078Z,23.29
2023-05-06T14:43:10.953Z,23.72
2023-05-06T14:45:37.682Z,23.05
2023-05-06T14:48:05.066Z,23.53
2023-05-06T14:50:32.118Z,23.51
2023-05-06T14:52:58.841Z,23.28
2023-05-06T14:55:25.920Z,24.24
2023-05-06T14:57:52.723Z,23.53
2023-05-06T15:00:20.372Z,23.90
2023-05-06T15:02:47.319Z,24.43
2023-05-06T15:05:14.441Z,24.64
2023-05-06T15:07:41.873Z,24.77
2023-05-06T15:10:09.001Z,25.11
2023-05-06T15:12:37.302Z,24.77
2023-05-06T15:15:05.252Z,24.42
2023-05-06T15:17:32.748Z,24.46
2023-05-06T15:19:59.970Z,24.07
2023-05-06T15:22:27.124Z,24.09
2023-05-06T15:24:53.930Z,23.70
2023-05-06T15:27:20.844Z,23.41
2023-05-06T15:29:47.595Z,23.31
2023-05-06T15:32:15.056Z,23.79
2023-05-06T15:34:43.861Z,24.08
2023-05-06T15:37:11.094Z,24.60
2023-05-06T15:39:37.878Z,24.46
2023-05-06T15:42:04.889Z,24.41
2023-05-06T15:44:33.420Z,24.14
2023-05-06T15:47:00.241Z,24.38
2023-05-06T15:49:49.327Z,23.48
2023-05-06T15:52:13.980Z,24.18
2023-05-06T15:54:41.228Z,24.25
2023-05-06T15:57:08.138Z,24.00
2023-05-06T15:59:34.884Z,24.22
2023-05-06T16:02:26.279Z,23.95
2023-05-06T16:04:48.490Z,24.69
2023-05-06T16:07:15.700Z,24.64
2023-05-06T16:09:43.810Z,24.44
2023-05-06T16:12:10.580Z,24.30
2023-05-06T16:14:38.528Z,25.12
2023-05-06T16:17:05.290Z,24.74
2023-05-06T16:19:35.422Z,24.58
2023-05-06T16:22:02.918Z,25.04
2023-05-06T16:24:31.466Z,25.12
2023-05-06T16:26:58.394Z,24.78
2023-05-06T16:29:25.263Z,24.65
2023-05-06T16:31:52.200Z,25.01
2023-05-06T16:34:18.907Z,24.42
2023-05-06T16:36:45.988Z,24.63
2023-05-06T16:39:12.847Z,24.28
2023-05-06T16:41:39.689Z,24.62
2023-05-06T16:44:06.360Z,24.46
2023-05-06T16:46:33.292Z,25.02
2023-05-06T16:49:00.323Z,25.04
2023-05-06T16:51:27.349Z,24.71
2023-05-06T16:53:54.127Z,24.84
2023-05-06T16:56:20.874Z,24.88
2023-05-06T16:58:47.934Z,25.08
2023-05-06T17:01:14.838Z,25.13
2023-05-06T17:03:41.793Z,25.49
2023-05-06T17:06:08.895Z,25.14
2023-05-06T17:08:37.201Z,25.84
2023-05-06T17:11:07.117Z,25.68
2023-05-06T17:13:34.712Z,26.68
2023-05-06T17:16:01.531Z,27.50
2023-05-06T17:18:28.348Z,27.96
2023-05-06T17:20:56.996Z,28.49
2023-05-06T17:23:24.445Z,29.15
2023-05-06T17:25:51.501Z,29.76
2023-05-06T17:28:19.052Z,29.19
2023-05-06T17:30:46.464Z,30.13
2023-05-06T17:33:13.526Z,30.82
2023-05-06T17:35:40.255Z,30.67
2023-05-06T17:38:07.732Z,30.38
2023-05-06T17:40:34.561Z,30.81
2023-05-06T17:43:01.598Z,30.92
2023-05-06T17:45:28.595Z,30.86
2023-05-06T17:47:56.398Z,31.21
2023-05-06T17:50:23.470Z,30.97
2023-05-06T17:52:50.909Z,31.26
2023-05-06T17:55:17.946Z,31.49
2023-05-06T17:57:44.720Z,31.58
2023-05-06T18:00:14.102Z,31.68
2023-05-06T18:02:42.357Z,32.30
2023-05-06T18:05:09.623Z,32.00
2023-05-06T18:07:36.748Z,32.46
2023-05-06T18:10:03.723Z,32.53
2023-05-06T18:12:31.262Z,32.73
2023-05-06T18:14:58.141Z,32.70
2023-05-06T18:17:24.898Z,32.38
2023-05-06T18:19:52.815Z,32.94
2023-05-06T18:22:23.595Z,32.70
2023-05-06T18:24:54.997Z,32.87
2023-05-06T18:27:22.634Z,33.08
2023-05-06T18:29:49.399Z,33.05
2023-05-06T18:32:16.007Z,33.53
2023-05-06T18:34:42.682Z,33.40
2023-05-06T18:37:09.376Z,33.78
2023-05-06T18:39:41.518Z,34.08
2023-05-06T18:42:08.594Z,34.30
2023-05-06T18:44:35.415Z,34.32
2023-05-06T18:47:02.159Z,34.87
2023-05-06T18:49:30.699Z,34.91
2023-05-06T18:51:57.452Z,35.30
2023-05-06T18:54:24.525Z,35.45
2023-05-06T18:56:54.825Z,35.44
2023-05-06T18:59:21.906Z,35.93
2023-05-06T19:01:48.550Z,35.98
2023-05-06T19:04:15.359Z,36.02
2023-05-06T19:06:42.154Z,36.33
2023-05-06T19:09:08.895Z,36.04
2023-05-06T19:11:35.753Z,36.26
2023-05-06T19:14:02.789Z,36.27
2023-05-06T19:16:29.480Z,36.91
2023-05-06T19:18:56.235Z,36.92
2023-05-06T19:21:23.098Z,37.33
2023-05-06T19:23:50.113Z,37.03
2023-05-06T19:26:16.782Z,37.16
2023-05-06T19:28:43.652Z,37.18
2023-05-06T19:31:11.369Z,37.38
2023-05-06T19:33:38.925Z,37.47
2023-05-06T19:36:06.213Z,37.66
2023-05-06T19:38:32.913Z,37.77
2023-05-06T19:40:59.652Z,37.85
2023-05-06T19:43:26.362Z,38.13
2023-05-06T19:45:53.139Z,38.84
2023-05-06T19:48:19.805Z,38.96
2023-05-06T19:50:46.530Z,38.50
2023-05-06T19:53:13.124Z,38.60
2023-05-06T19:55:39.818Z,38.60
2023-05-06T19:58:06.514Z,38.83
2023-05-06T20:00:33.154Z,39.01
2023-05-06T20:03:00.493Z,39.17
2023-05-06T20:05:31.985Z,39.00
2023-05-06T20:08:02.076Z,39.98
2023-05-06T20:10:29.168Z,39.98
2023-05-06T20:12:57.658Z,40.11
2023-05-06T20:15:25.227Z,39.98
2023-05-06T20:17:51.929Z,40.19
2023-05-06T20:20:19.375Z,40.53
2023-05-06T20:22:46.086Z,40.72
2023-05-06T20:25:16.194Z,40.81
2023-05-06T20:27:43.809Z,41.12
2023-05-06T20:30:11.106Z,41.48
2023-05-06T20:32:39.439Z,41.25
2023-05-06T20:35:06.516Z,41.37
2023-05-06T20:37:36.832Z,41.10
2023-05-06T20:40:05.798Z,41.48
2023-05-06T20:42:32.438Z,41.92
2023-05-06T20:44:59.769Z,41.71
2023-05-06T20:47:26.999Z,41.42
2023-05-06T20:49:56.775Z,41.58
2023-05-06T20:52:23.409Z,41.65
2023-05-06T20:54:50.033Z,41.65
2023-05-06T20:57:17.347Z,41.47
2023-05-06T20:59:44.390Z,41.83
2023-05-06T21:02:11.537Z,42.20
2023-05-06T21:04:38.374Z,42.17
2023-05-06T21:07:05.257Z,42.29
2023-05-06T21:09:31.860Z,42.49
2023-05-06T21:11:59.049Z,42.28
2023-05-06T21:14:26.958Z,42.57
2023-05-06T21:16:53.848Z,42.31
2023-05-06T21:19:20.943Z,43.17
2023-05-06T21:21:48.299Z,42.77
2023-05-06T21:24:15.592Z,42.74
2023-05-06T21:26:42.385Z,42.92
2023-05-06T21:29:09.112Z,43.00
2023-05-06T21:31:36.177Z,43.35
2023-05-06T21:34:04.292Z,43.27
2023-05-06T21:36:31.236Z,43.58
2023-05-06T21:39:06.613Z,43.81
2023-05-06T21:41:36.089Z,43.84
2023-05-06T21:44:03.634Z,43.75
2023-05-06T21:46:31.292Z,44.08
2023-05-06T21:48:58.601Z,43.87
2023-05-06T21:51:29.435Z,44.25
2023-05-06T21:53:56.115Z,44.14
2023-05-06T21:56:22.990Z,44.44
2023-05-06T21:58:50.311Z,44.70
2023-05-06T22:01:17.630Z,44.60
2023-05-06T22:03:45.139Z,44.59
2023-05-06T22:06:12.693Z,44.40
2023-05-06T22:08:40.501Z,44.67
2023-05-06T22:11:07.523Z,44.69
2023-05-06T22:13:34.274Z,44.69
2023-05-06T22:16:01.122Z,44.91
2023-05-06T22:18:30.003Z,45.03
2023-05-06T22:20:57.821Z,44.92
2023-05-06T22:23:25.272Z,44.96
2023-05-06T22:25:52.152Z,44.99
2023-05-06T22:28:19.852Z,44.80
2023-05-06T22:30:46.626Z,45.30
2023-05-06T22:33:13.263Z,45.37
2023-05-06T22:35:40.028Z,45.47
2023-05-06T22:38:06.784Z,45.74
2023-05-06T22:40:33.480Z,45.40
2023-05-06T22:43:00.353Z,45.52
2023-05-06T22:45:27.218Z,45.42
2023-05-06T22:47:54.093Z,45.43
2023-05-06T22:50:20.839Z,45.94
2023-05-06T22:52:47.739Z,46.06
2023-05-06T22:55:15.071Z,45.41
2023-05-06T22:57:44.959Z,45.57
2023-05-06T23:00:12.769Z,45.70
2023-05-06T23:02:39.820Z,45.88
2023-05-06T23:05:06.711Z,45.56
2023-05-06T23:07:33.481Z,45.78
2023-05-06T23:10:00.633Z,45.50
2023-05-06T23:12:31.753Z,45.89
2023-05-06T23:14:58.344Z,46.32
2023-05-06T23:17:25.585Z,46.24
2023-05-06T23:19:53.628Z,46.01
2023-05-06T23:22:20.701Z,46.20
2023-05-06T23:24:47.362Z,46.08
2023-05-06T23:27:13.982Z,46.20
2023-05-06T23:29:40.672Z,46.34
2023-05-06T23:32:07.573Z,46.19
2023-05-06T23:34:34.264Z,46.08
2023-05-06T23:37:01.114Z,46.10
2023-05-06T23:39:27.932Z,46.06
2023-05-06T23:41:54.623Z,46.24
2023-05-06T23:44:21.432Z,45.89
2023-05-06T23:46:48.248Z,46.11
2023-05-06T23:49:15.243Z,45.91
2023-05-06T23:51:41.981Z,46.43
2023-05-06T23:54:09.075Z,46.34
2023-05-06T23:56:40.914Z,46.22
2023-05-06T23:59:11.243Z,46.19
